Time;durP1;ratioP1;P1;durP2;ratioP2;P2;SDS_P1;SDS_P2;PMS_P1;PMS_P2;Temp;Humidity;BMP_temperature;BMP_pressure;BME280_temperature;BME280_humidity;BME280_pressure;Samples;Min_cycle;Max_cycle;Signal;HPM_P1;HPM_P2
2024/01/08 00:00:57;;;;;;;28.20;14.30;;;;;;;-4.11;53.31;101000.59;5024521;27;97625;-77
2024/01/08 00:03:23;;;;;;;26.23;14.37;;;;;;;-3.84;53.65;101022.06;5011015;27;101668;-77
2024/01/08 00:05:49;;;;;;;26.63;14.47;;;;;;;-3.66;53.74;101036.44;5027660;27;96886;-78
2024/01/08 00:08:14;;;;;;;28.37;14.63;;;;;;;-3.68;53.22;101030.34;5014946;27;96859;-77
2024/01/08 00:10:40;;;;;;;27.17;15.00;;;;;;;-3.71;52.47;101030.25;5027135;27;101444;-76
2024/01/08 00:13:06;;;;;;;29.83;14.53;;;;;;;-3.55;53.17;101035.91;4994278;27;101076;-77
2024/01/08 00:15:32;;;;;;;27.43;15.20;;;;;;;-3.85;53.62;101012.63;5016752;27;97253;-77
2024/01/08 00:17:57;;;;;;;22.57;13.47;;;;;;;-4.29;53.04;101023.03;5013662;27;96782;-77
2024/01/08 00:20:23;;;;;;;28.80;15.40;;;;;;;-4.72;53.28;101018.81;5014565;27;100973;-77
2024/01/08 00:22:48;;;;;;;26.03;14.03;;;;;;;-4.86;54.10;101041.38;5033393;27;101477;-78
2024/01/08 00:25:14;;;;;;;28.90;15.80;;;;;;;-4.72;53.80;101033.31;5012053;27;96772;-76
2024/01/08 00:27:39;;;;;;;29.90;15.43;;;;;;;-4.90;54.00;101030.91;5017711;27;96955;-76
2024/01/08 00:30:06;;;;;;;29.40;15.60;;;;;;;-4.93;54.23;101049.59;4998838;27;101720;-76
2024/01/08 00:32:31;;;;;;;30.23;15.20;;;;;;;-4.72;54.38;101053.81;5033628;27;97821;-77
2024/01/08 00:34:58;;;;;;;32.37;17.00;;;;;;;-4.66;53.41;101044.69;5050047;27;97063;-77
2024/01/08 00:37:23;;;;;;;25.37;15.03;;;;;;;-4.80;52.97;101041.59;5017137;27;96874;-77
2024/01/08 00:39:49;;;;;;;32.30;16.03;;;;;;;-4.41;53.63;101055.91;5015658;27;97558;-77
2024/01/08 00:42:14;;;;;;;28.00;16.50;;;;;;;-4.67;53.21;101060.88;5018631;27;100904;-75
2024/01/08 00:44:40;;;;;;;27.53;14.43;;;;;;;-4.61;53.17;101061.13;4999035;27;97040;-76
2024/01/08 00:47:05;;;;;;;28.23;16.10;;;;;;;-4.45;53.20;101054.00;5032198;27;96813;-78
2024/01/08 00:49:31;;;;;;;29.27;15.23;;;;;;;-4.31;53.41;101063.09;5013158;27;99509;-78
2024/01/08 00:51:56;;;;;;;28.43;15.47;;;;;;;-4.55;54.00;101063.03;5026055;28;101812;-78
2024/01/08 00:54:22;;;;;;;29.00;15.93;;;;;;;-4.45;53.81;101072.84;5036887;27;96999;-78
2024/01/08 00:56:47;;;;;;;28.77;16.23;;;;;;;-4.47;53.28;101059.09;5018919;28;96947;-78
2024/01/08 00:59:13;;;;;;;28.70;15.83;;;;;;;-4.63;53.25;101059.31;4999421;27;101372;-78
2024/01/08 01:01:38;;;;;;;29.83;14.97;;;;;;;-4.64;53.35;101043.06;5012809;27;101059;-77
2024/01/08 01:04:04;;;;;;;26.63;16.13;;;;;;;-4.56;53.51;101066.44;5009283;27;96879;-77
2024/01/08 01:06:29;;;;;;;27.93;15.43;;;;;;;-4.49;53.69;101062.41;5027651;27;96866;-78
2024/01/08 01:08:55;;;;;;;30.77;17.03;;;;;;;-4.60;53.52;101052.59;5030416;27;101901;-78
2024/01/08 01:11:20;;;;;;;28.23;16.10;;;;;;;-4.53;54.00;101066.56;4999457;27;101231;-77
2024/01/08 01:13:46;;;;;;;27.63;15.03;;;;;;;-4.43;53.88;101084.00;5016151;27;96947;-78
2024/01/08 01:16:11;;;;;;;30.70;15.13;;;;;;;-4.40;53.42;101083.25;5042245;27;96804;-79
2024/01/08 01:18:37;;;;;;;29.60;15.23;;;;;;;-4.62;53.70;101089.25;5013075;27;101632;-78
2024/01/08 01:21:02;;;;;;;26.57;13.97;;;;;;;-4.91;54.24;101088.97;5004991;27;99982;-78
2024/01/08 01:23:28;;;;;;;28.00;15.07;;;;;;;-4.75;54.05;101076.75;4996887;27;97663;-78
2024/01/08 01:25:53;;;;;;;27.50;15.73;;;;;;;-4.63;53.75;101072.97;5016259;27;97319;-78
2024/01/08 01:28:19;;;;;;;28.67;15.93;;;;;;;-4.57;53.96;101067.22;5016194;27;100943;-78
2024/01/08 01:30:44;;;;;;;31.30;16.47;;;;;;;-4.45;54.07;101047.22;5031566;27;100938;-78
2024/01/08 01:33:10;;;;;;;27.07;15.20;;;;;;;-4.36;53.95;101080.03;5016684;27;97403;-78
2024/01/08 01:35:35;;;;;;;29.47;15.83;;;;;;;-4.37;53.45;101068.88;5033074;27;96985;-78
2024/01/08 01:38:01;;;;;;;25.57;15.73;;;;;;;-4.53;53.79;101071.69;5033075;27;97809;-80
2024/01/08 01:40:26;;;;;;;34.03;17.37;;;;;;;-4.35;54.24;101074.94;5031526;27;98385;-78
2024/01/08 01:42:54;;;;;;;32.40;16.47;;;;;;;-4.34;53.59;101092.06;5032532;27;97331;-79
2024/01/08 01:45:21;;;;;;;32.27;16.50;;;;;;;-4.74;54.00;101055.44;5015991;27;97360;-75
2024/01/08 01:47:48;;;;;;;28.47;16.17;;;;;;;-4.44;53.88;101077.16;5005766;27;99163;-76
2024/01/08 01:50:14;;;;;;;31.07;16.27;;;;;;;-4.57;54.45;101080.03;5030926;27;97460;-75
2024/01/08 01:52:40;;;;;;;24.83;14.20;;;;;;;-4.59;53.90;101076.56;5014419;27;96757;-76
2024/01/08 01:55:06;;;;;;;27.70;14.80;;;;;;;-4.63;54.28;101074.69;5009500;27;96994;-76
2024/01/08 01:57:32;;;;;;;26.90;15.47;;;;;;;-4.45;53.80;101084.78;5015849;27;101177;-77
2024/01/08 01:59:58;;;;;;;26.67;15.23;;;;;;;-4.30;53.34;101087.94;5015703;27;101198;-77
2024/01/08 02:02:27;;;;;;;32.13;18.33;;;;;;;-4.41;53.50;101067.03;5015842;27;96843;-77
2024/01/08 02:04:55;;;;;;;31.87;17.10;;;;;;;-4.28;53.27;101085.41;5015643;27;97324;-77
2024/01/08 02:07:20;;;;;;;28.53;15.70;;;;;;;-4.57;54.15;101092.84;5015642;27;101001;-76
2024/01/08 02:09:46;;;;;;;29.27;15.83;;;;;;;-4.51;53.57;101090.53;5011630;27;100800;-77
2024/01/08 02:12:16;;;;;;;26.20;14.40;;;;;;;-4.26;53.19;101105.19;4993900;27;97982;-77
2024/01/08 02:14:43;;;;;;;26.80;15.13;;;;;;;-4.33;53.70;101100.66;5011286;27;97324;-77
2024/01/08 02:17:08;;;;;;;28.40;14.90;;;;;;;-4.23;53.72;101094.16;5028899;27;97999;-77
2024/01/08 02:19:34;;;;;;;26.87;15.20;;;;;;;-4.43;53.24;101098.53;5015135;27;101199;-77
2024/01/08 02:21:59;;;;;;;31.00;17.43;;;;;;;-4.35;54.03;101072.38;5012111;27;97328;-77
2024/01/08 02:24:27;;;;;;;27.77;14.67;;;;;;;-4.10;53.05;101106.66;5014267;27;97108;-77
2024/01/08 02:26:53;;;;;;;34.93;15.13;;;;;;;-4.00;53.41;101110.44;5012601;27;101198;-77
2024/01/08 02:29:21;;;;;;;29.30;16.87;;;;;;;-3.94;53.39;101106.41;5005946;27;97320;-77
2024/01/08 02:31:47;;;;;;;29.87;16.27;;;;;;;-3.94;53.07;101108.09;5013960;27;97481;-76
2024/01/08 02:34:12;;;;;;;29.30;16.27;;;;;;;-4.14;52.48;101118.47;5023416;27;97002;-77
2024/01/08 02:36:38;;;;;;;29.13;14.97;;;;;;;-4.38;53.68;101115.84;5012164;27;101371;-77
2024/01/08 02:39:03;;;;;;;28.53;15.53;;;;;;;-4.46;53.71;101117.22;5014164;27;101368;-76
2024/01/08 02:41:29;;;;;;;25.70;14.03;;;;;;;-4.40;53.21;101102.06;5024278;27;97131;-76
2024/01/08 02:43:54;;;;;;;28.20;15.23;;;;;;;-4.36;53.23;101137.28;5004613;27;96903;-76
2024/01/08 02:46:20;;;;;;;31.83;15.07;;;;;;;-4.40;54.30;101124.28;5012059;27;100808;-76
2024/01/08 02:48:45;;;;;;;29.00;16.90;;;;;;;-4.21;53.75;101128.44;5025716;27;97515;-76
2024/01/08 02:51:11;;;;;;;32.90;17.10;;;;;;;-4.07;53.82;101129.84;5012055;27;96751;-76
2024/01/08 02:53:36;;;;;;;31.73;15.77;;;;;;;-4.15;53.79;101132.09;5014889;27;97152;-76
2024/01/08 02:56:02;;;;;;;30.07;16.80;;;;;;;-4.24;53.88;101134.31;5012522;27;98350;-76
2024/01/08 02:58:27;;;;;;;31.37;16.20;;;;;;;-4.18;54.24;101143.94;5014685;27;101217;-77
2024/01/08 03:00:53;;;;;;;29.57;16.57;;;;;;;-4.65;54.67;101119.88;5014029;27;96977;-77
2024/01/08 03:03:18;;;;;;;30.77;15.87;;;;;;;-4.46;54.46;101140.28;5012594;28;96839;-76
2024/01/08 03:05:44;;;;;;;33.10;16.43;;;;;;;-4.75;55.05;101139.13;5014683;27;97525;-76
2024/01/08 03:08:09;;;;;;;29.50;16.03;;;;;;;-4.70;54.95;101160.69;5000173;28;101469;-77
2024/01/08 03:10:35;;;;;;;26.03;16.47;;;;;;;-4.77;54.55;101130.47;5026334;27;97257;-76
2024/01/08 03:13:00;;;;;;;32.70;17.10;;;;;;;-4.52;54.27;101155.44;5011480;28;96911;-76
2024/01/08 03:15:26;;;;;;;32.83;16.40;;;;;;;-4.78;54.99;101128.75;5018863;27;99398;-76
2024/01/08 03:17:51;;;;;;;39.07;18.17;;;;;;;-4.88;54.86;101140.31;5015583;27;97482;-76
2024/01/08 03:20:17;;;;;;;29.73;15.53;;;;;;;-4.89;55.46;101159.03;5010437;27;97330;-76
2024/01/08 03:22:42;;;;;;;29.33;17.07;;;;;;;-5.05;55.86;101172.88;5031127;27;96756;-77
2024/01/08 03:25:09;;;;;;;33.27;18.23;;;;;;;-4.99;56.23;101162.03;5010502;27;99410;-77
2024/01/08 03:27:34;;;;;;;29.17;15.47;;;;;;;-5.00;55.40;101160.28;5013025;28;98026;-76
2024/01/08 03:29:59;;;;;;;33.80;17.10;;;;;;;-4.81;55.85;101151.69;5009252;27;97017;-76
2024/01/08 03:32:25;;;;;;;32.93;16.70;;;;;;;-4.83;55.48;101168.66;5013863;27;97118;-76
2024/01/08 03:34:51;;;;;;;29.60;16.70;;;;;;;-4.78;55.42;101173.16;5012970;27;100473;-76
2024/01/08 03:37:16;;;;;;;37.23;18.90;;;;;;;-4.67;55.00;101177.88;5011182;28;100514;-76
2024/01/08 03:39:42;;;;;;;30.57;16.87;;;;;;;-5.02;55.46;101175.59;5005661;27;97355;-77
2024/01/08 03:42:08;;;;;;;28.10;15.57;;;;;;;-5.15;55.57;101183.53;5022734;27;96961;-77
2024/01/08 03:44:34;;;;;;;33.73;16.73;;;;;;;-4.96;54.79;101182.66;5003827;27;101325;-76
2024/01/08 03:47:00;;;;;;;31.63;16.43;;;;;;;-4.86;55.23;101186.47;5014576;27;97678;-76
2024/01/08 03:49:26;;;;;;;26.97;15.70;;;;;;;-4.70;54.57;101188.88;5044445;27;96988;-76
2024/01/08 03:51:51;;;;;;;32.73;16.47;;;;;;;-4.55;54.81;101184.38;5014064;27;97420;-76
2024/01/08 03:54:17;;;;;;;32.73;17.03;;;;;;;-4.41;54.18;101173.81;5044128;27;97852;-77
2024/01/08 03:56:44;;;;;;;34.70;16.73;;;;;;;-4.56;53.93;101186.88;5017895;27;101208;-78
2024/01/08 03:59:12;;;;;;;32.93;17.20;;;;;;;-4.71;53.77;101184.56;5032270;27;96829;-76
2024/01/08 04:01:44;;;;;;;30.57;16.43;;;;;;;-4.49;53.26;101198.25;5015404;28;97413;-76
2024/01/08 04:04:10;;;;;;;29.07;16.03;;;;;;;-4.47;53.38;101194.06;5024476;27;97480;-76
2024/01/08 04:06:35;;;;;;;33.07;17.43;;;;;;;-4.52;53.35;101193.88;4987979;28;101910;-77
2024/01/08 04:09:01;;;;;;;29.77;15.97;;;;;;;-4.80;53.00;101166.22;5012910;27;97746;-76
2024/01/08 04:11:26;;;;;;;32.17;16.67;;;;;;;-4.67;52.79;101165.94;5016694;27;97379;-76
2024/01/08 04:13:52;;;;;;;41.97;17.53;;;;;;;-4.53;52.76;101166.50;5016365;27;101400;-76
2024/01/08 04:16:17;;;;;;;29.20;15.67;;;;;;;-4.63;53.09;101174.59;5027828;27;98054;-76
2024/01/08 04:18:43;;;;;;;34.47;16.47;;;;;;;-4.46;53.42;101206.06;5016971;27;97236;-77
2024/01/08 04:21:08;;;;;;;46.40;15.93;;;;;;;-4.43;52.61;101201.06;5033839;27;96807;-76
2024/01/08 04:23:34;;;;;;;28.50;15.57;;;;;;;-4.74;51.89;101196.34;5016723;27;97586;-76
2024/01/08 04:25:59;;;;;;;30.80;15.17;;;;;;;-4.75;52.72;101226.22;5043851;27;97945;-76
2024/01/08 04:28:25;;;;;;;34.17;17.33;;;;;;;-4.93;53.26;101199.84;4995968;27;96858;-76
2024/01/08 04:30:50;;;;;;;37.27;16.53;;;;;;;-4.86;53.20;101223.22;5017503;27;97254;-76
2024/01/08 04:33:16;;;;;;;32.07;16.93;;;;;;;-4.94;53.12;101236.50;5006290;27;101658;-76
2024/01/08 04:35:41;;;;;;;32.10;18.17;;;;;;;-5.19;53.18;101196.16;5033561;27;101078;-76
2024/01/08 04:38:07;;;;;;;33.83;16.53;;;;;;;-5.15;53.59;101241.56;5000051;27;97190;-77
2024/01/08 04:40:32;;;;;;;40.73;16.73;;;;;;;-5.41;53.51;101238.72;5015034;27;97324;-76
2024/01/08 04:42:58;;;;;;;38.47;18.03;;;;;;;-5.16;53.31;101239.81;5016585;27;99708;-77
2024/01/08 04:45:23;;;;;;;36.10;17.07;;;;;;;-5.03;53.31;101242.97;5033974;27;98035;-76
2024/01/08 04:47:49;;;;;;;34.50;17.43;;;;;;;-5.17;53.76;101240.63;5033713;27;96970;-77
2024/01/08 04:50:14;;;;;;;36.23;17.47;;;;;;;-5.22;53.03;101227.63;5000320;27;97101;-76
2024/01/08 04:52:40;;;;;;;31.70;18.03;;;;;;;-5.25;53.38;101260.75;5015444;27;101189;-76
2024/01/08 04:55:05;;;;;;;34.80;17.20;;;;;;;-5.53;53.26;101225.34;5017461;27;101372;-76
2024/01/08 04:57:31;;;;;;;38.70;18.00;;;;;;;-5.25;53.07;101243.72;5016070;27;96835;-76
2024/01/08 04:59:56;;;;;;;44.53;18.17;;;;;;;-5.16;53.55;101268.84;5052087;27;96786;-75
2024/01/08 05:02:22;;;;;;;33.20;18.20;;;;;;;-5.13;53.00;101256.19;5015528;27;101116;-76
2024/01/08 05:04:47;;;;;;;34.10;17.07;;;;;;;-5.22;52.57;101248.09;5027817;28;97926;-75
2024/01/08 05:07:13;;;;;;;34.87;18.77;;;;;;;-4.98;52.71;101270.47;5010339;27;97583;-76
2024/01/08 05:09:39;;;;;;;32.73;18.43;;;;;;;-5.12;53.15;101275.88;5015731;27;96883;-76
2024/01/08 05:12:04;;;;;;;33.83;18.97;;;;;;;-5.08;52.85;101288.00;5014132;27;101197;-76
2024/01/08 05:14:30;;;;;;;36.37;18.83;;;;;;;-5.35;52.36;101277.41;5005136;27;99755;-75
2024/01/08 05:16:55;;;;;;;31.93;15.87;;;;;;;-5.38;53.03;101284.03;5014431;27;97213;-75
2024/01/08 05:19:21;;;;;;;30.80;15.90;;;;;;;-5.53;53.25;101279.09;5016743;27;96871;-74
2024/01/08 05:21:46;;;;;;;33.87;16.50;;;;;;;-5.54;52.58;101301.25;5015295;27;101413;-74
2024/01/08 05:24:13;;;;;;;31.07;16.73;;;;;;;-5.79;53.08;101294.13;5016329;27;100824;-74
2024/01/08 05:26:38;;;;;;;33.23;17.20;;;;;;;-5.96;53.20;101284.81;5032321;27;97124;-76
2024/01/08 05:29:04;;;;;;;37.83;17.50;;;;;;;-5.88;53.51;101306.44;5016180;27;97236;-76
2024/01/08 05:31:29;;;;;;;34.43;16.13;;;;;;;-5.73;53.02;101311.41;5013455;27;100851;-75
2024/01/08 05:33:55;;;;;;;30.57;16.70;;;;;;;-6.30;52.96;101264.41;5007923;28;101399;-76
2024/01/08 05:36:20;;;;;;;32.80;17.53;;;;;;;-6.36;53.84;101285.41;5011886;27;96796;-76
2024/01/08 05:38:47;;;;;;;36.13;18.07;;;;;;;-6.11;53.04;101291.72;5030480;27;97163;-76
2024/01/08 05:41:12;;;;;;;36.70;17.27;;;;;;;-6.01;52.69;101292.25;5049042;27;97339;-75
2024/01/08 05:43:38;;;;;;;35.40;17.23;;;;;;;-5.77;53.03;101300.16;4997142;27;101499;-77
2024/01/08 05:46:05;;;;;;;37.97;19.37;;;;;;;-5.75;52.85;101297.69;5016680;27;97463;-74
2024/01/08 05:48:36;;;;;;;33.13;16.97;;;;;;;-5.87;52.59;101299.69;5016305;27;96885;-75
2024/01/08 05:51:04;;;;;;;36.75;18.30;;;;;;;-5.63;52.54;101341.75;5016356;27;99884;-75
2024/01/08 05:53:29;;;;;;;36.70;17.87;;;;;;;-5.83;53.30;101312.66;5029448;27;98088;-75
2024/01/08 05:55:55;;;;;;;38.53;17.23;;;;;;;-5.75;53.21;101311.34;5011839;27;96892;-73
2024/01/08 05:58:21;;;;;;;37.37;18.63;;;;;;;-5.96;53.87;101302.69;5016221;27;96851;-75
2024/01/08 06:00:47;;;;;;;43.23;19.00;;;;;;;-5.74;52.71;101313.09;5048569;27;97854;-75
2024/01/08 06:03:12;;;;;;;38.03;17.53;;;;;;;-5.59;52.97;101329.97;5031276;27;98174;-75
2024/01/08 06:05:38;;;;;;;37.87;19.00;;;;;;;-5.53;52.73;101349.06;5025118;27;96894;-76
2024/01/08 06:08:04;;;;;;;31.73;17.77;;;;;;;-5.86;52.73;101304.84;5015162;27;97419;-74
2024/01/08 06:10:29;;;;;;;36.80;18.20;;;;;;;-5.43;52.77;101352.94;5018003;27;97675;-75
2024/01/08 06:12:55;;;;;;;34.23;18.00;;;;;;;-5.43;52.52;101346.94;5022374;27;98161;-75
2024/01/08 06:15:20;;;;;;;35.17;18.27;;;;;;;-5.54;52.21;101318.28;5020160;27;97289;-75
2024/01/08 06:17:46;;;;;;;40.03;18.97;;;;;;;-5.53;52.38;101336.25;5016281;27;97398;-75
2024/01/08 06:20:12;;;;;;;33.77;17.33;;;;;;;-5.65;52.66;101345.91;5026661;27;97492;-77
2024/01/08 06:22:37;;;;;;;40.03;19.50;;;;;;;-5.83;53.30;101332.25;5016258;27;98121;-78
2024/01/08 06:25:04;;;;;;;37.13;18.97;;;;;;;-5.63;52.83;101331.53;5011344;27;97824;-75
2024/01/08 06:27:30;;;;;;;39.57;18.80;;;;;;;-5.41;52.65;101363.22;5003919;27;96980;-75
2024/01/08 06:29:55;;;;;;;33.67;17.33;;;;;;;-5.79;53.31;101335.06;5013138;27;97958;-75
2024/01/08 06:32:21;;;;;;;35.77;19.60;;;;;;;-5.72;53.11;101347.31;5013987;27;101739;-76
2024/01/08 06:34:46;;;;;;;40.23;18.53;;;;;;;-5.58;52.56;101357.34;5017860;27;97198;-76
2024/01/08 06:37:12;;;;;;;41.00;18.13;;;;;;;-5.35;52.44;101369.53;5024798;27;97276;-76
2024/01/08 06:39:38;;;;;;;30.47;16.37;;;;;;;-5.45;52.27;101357.09;5017646;27;97936;-79
2024/01/08 06:42:04;;;;;;;33.70;17.00;;;;;;;-5.35;52.48;101360.97;5014263;27;97568;-77
2024/01/08 06:44:30;;;;;;;32.53;17.07;;;;;;;-5.31;52.47;101394.47;5009412;27;97256;-76
2024/01/08 06:46:55;;;;;;;31.47;16.97;;;;;;;-5.43;52.00;101395.56;5031142;27;97018;-82
2024/01/08 06:49:21;;;;;;;37.53;18.20;;;;;;;-5.80;52.94;101388.66;5031760;27;97371;-78
2024/01/08 06:51:46;;;;;;;39.43;19.40;;;;;;;-5.41;52.75;101399.06;5027911;27;98013;-79
2024/01/08 06:54:13;;;;;;;37.07;17.27;;;;;;;-5.30;52.33;101401.31;5012901;27;97231;-78
2024/01/08 06:56:39;;;;;;;34.87;18.17;;;;;;;-5.76;51.98;101386.34;5014379;27;96813;-78
2024/01/08 06:59:04;;;;;;;34.73;17.13;;;;;;;-5.78;52.93;101354.69;5014044;27;98156;-79
2024/01/08 07:01:30;;;;;;;37.37;17.00;;;;;;;-5.50;52.71;101397.84;5013851;27;100962;-78
2024/01/08 07:03:56;;;;;;;40.57;19.10;;;;;;;-5.41;52.52;101406.75;5019090;27;97220;-78
2024/01/08 07:06:23;;;;;;;33.73;16.87;;;;;;;-5.57;53.04;101413.69;4998037;28;97214;-79
2024/01/08 07:08:48;;;;;;;36.97;16.93;;;;;;;-5.65;52.17;101389.41;5010150;27;97629;-78
2024/01/08 07:11:23;;;;;;;33.40;18.67;;;;;;;-5.38;52.61;101419.69;4995403;27;101828;-81
2024/01/08 07:13:49;;;;;;;30.97;16.33;;;;;;;-5.38;52.00;101424.81;5000033;27;97218;-78
2024/01/08 07:16:15;;;;;;;35.10;17.73;;;;;;;-5.39;52.61;101420.50;5006514;27;97161;-78
2024/01/08 07:18:42;;;;;;;36.17;17.67;;;;;;;-5.52;51.86;101394.31;4996662;27;101658;-78
2024/01/08 07:21:09;;;;;;;31.33;16.90;;;;;;;-5.24;51.84;101427.25;4997508;27;101087;-78
2024/01/08 07:23:35;;;;;;;35.93;19.20;;;;;;;-5.73;51.99;101431.63;5030842;27;97480;-78
2024/01/08 07:26:01;;;;;;;40.50;16.87;;;;;;;-5.53;53.28;101441.16;5016402;28;96858;-78
2024/01/08 07:28:28;;;;;;;31.07;16.97;;;;;;;-5.33;52.35;101452.38;5008770;27;101129;-78
2024/01/08 07:30:54;;;;;;;34.90;17.60;;;;;;;-5.53;52.01;101441.16;5009916;28;98583;-80
2024/01/08 07:33:19;;;;;;;34.40;16.27;;;;;;;-5.54;52.56;101453.91;5003025;27;97042;-78
2024/01/08 07:35:45;;;;;;;35.07;15.80;;;;;;;-5.72;52.18;101448.75;4996840;27;97480;-79
2024/01/08 07:38:10;;;;;;;30.87;16.47;;;;;;;-5.65;52.27;101461.03;5013606;27;101116;-78
2024/01/08 07:40:36;;;;;;;32.80;17.47;;;;;;;-5.77;52.62;101433.19;4996119;27;101905;-79
2024/01/08 07:43:02;;;;;;;37.23;17.77;;;;;;;-5.94;53.32;101464.72;5049242;27;97507;-79
2024/01/08 07:45:27;;;;;;;37.93;17.20;;;;;;;-6.05;53.61;101459.09;4997093;27;97524;-79
2024/01/08 07:47:54;;;;;;;34.23;16.80;;;;;;;-6.07;53.29;101440.22;5030336;27;101672;-78
2024/01/08 07:50:20;;;;;;;32.73;16.73;;;;;;;-5.76;52.94;101486.13;5009615;27;97385;-78
2024/01/08 07:52:46;;;;;;;33.03;17.23;;;;;;;-5.97;52.62;101480.78;5013493;27;96811;-78
2024/01/08 07:55:11;;;;;;;33.90;16.93;;;;;;;-6.28;52.80;101480.91;4996576;27;97004;-78
2024/01/08 07:57:37;;;;;;;42.23;18.20;;;;;;;-6.19;53.37;101478.81;5014017;27;98044;-79
2024/01/08 08:00:09;;;;;;;29.87;16.00;;;;;;;-6.03;53.21;101483.03;5013273;27;101154;-79
2024/01/08 08:02:41;;;;;;;35.10;16.77;;;;;;;-6.26;53.00;101491.19;5013884;27;97024;-78
2024/01/08 08:05:07;;;;;;;32.08;15.57;;;;;;;-6.27;53.65;101467.31;5030907;27;97130;-79
2024/01/08 08:07:32;;;;;;;33.47;15.80;;;;;;;-6.07;52.88;101499.03;5024165;27;100935;-78
2024/01/08 08:09:58;;;;;;;32.37;16.43;;;;;;;-5.97;53.10;101462.88;5029733;27;97293;-78
2024/01/08 08:12:24;;;;;;;34.20;17.40;;;;;;;-5.96;52.28;101504.72;5031160;27;96873;-79
2024/01/08 08:14:49;;;;;;;35.37;16.53;;;;;;;-5.75;52.10;101500.66;4995581;27;97040;-78
2024/01/08 08:17:17;;;;;;;34.13;16.90;;;;;;;-5.79;52.42;101503.88;5027451;27;100297;-78
2024/01/08 08:19:44;;;;;;;29.80;16.17;;;;;;;-5.94;51.86;101497.97;5029630;27;97485;-78
2024/01/08 08:22:11;;;;;;;32.70;15.43;;;;;;;-5.97;52.17;101485.91;5013188;27;96817;-77
2024/01/08 08:24:40;;;;;;;36.80;16.90;;;;;;;-5.77;52.18;101480.91;5029701;27;96903;-78
2024/01/08 08:27:10;;;;;;;30.33;15.17;;;;;;;-5.58;52.28;101521.09;5013030;27;97568;-78
2024/01/08 08:29:42;;;;;;;38.20;16.13;;;;;;;-5.72;51.41;101533.19;5029773;27;97488;-79
2024/01/08 08:32:08;;;;;;;39.57;18.43;;;;;;;-6.05;52.29;101509.31;5029313;27;97149;-78
2024/01/08 08:34:35;;;;;;;33.13;17.07;;;;;;;-5.71;51.44;101538.38;5003676;28;96830;-78
2024/01/08 08:37:00;;;;;;;34.50;16.33;;;;;;;-5.63;52.11;101508.06;5008596;27;101223;-78
2024/01/08 08:39:26;;;;;;;35.43;15.63;;;;;;;-5.51;51.29;101526.56;5012161;27;97468;-78
2024/01/08 08:41:52;;;;;;;34.23;17.53;;;;;;;-5.29;51.49;101538.78;5023122;27;96873;-78
2024/01/08 08:44:17;;;;;;;33.33;18.03;;;;;;;-5.37;51.71;101521.28;5032746;27;97277;-78
2024/01/08 08:46:44;;;;;;;38.83;19.87;;;;;;;-5.09;52.22;101550.00;5016395;27;101095;-78
2024/01/08 08:49:12;;;;;;;43.63;18.37;;;;;;;-5.13;51.99;101537.84;5012830;28;97985;-80
2024/01/08 08:51:37;;;;;;;35.20;17.17;;;;;;;-5.25;51.55;101557.72;5017107;27;97329;-78
2024/01/08 08:54:04;;;;;;;34.73;16.10;;;;;;;-4.96;51.45;101555.72;5015958;27;97695;-79
2024/01/08 08:56:35;;;;;;;29.87;15.77;;;;;;;-5.03;51.24;101557.97;5018137;27;97530;-79
2024/01/08 08:59:01;;;;;;;34.78;17.85;;;;;;;-4.92;51.51;101575.53;5016346;27;101298;-78
2024/01/08 09:01:27;;;;;;;35.40;17.80;;;;;;;-4.93;50.70;101574.66;4999466;27;97459;-79
2024/01/08 09:03:53;;;;;;;34.27;17.60;;;;;;;-5.08;51.57;101543.19;5013282;27;96881;-79
2024/01/08 09:06:24;;;;;;;40.53;19.97;;;;;;;-4.84;50.98;101579.34;4998994;27;100900;-79
2024/01/08 09:08:55;;;;;;;43.33;19.50;;;;;;;-4.42;50.54;101575.41;5015022;27;101322;-79
2024/01/08 09:11:21;;;;;;;38.10;18.13;;;;;;;-4.35;50.74;101576.53;5015767;27;96816;-79
2024/01/08 09:13:47;;;;;;;35.07;18.87;;;;;;;-4.41;51.12;101579.72;4995782;27;97307;-79
2024/01/08 09:16:14;;;;;;;37.53;19.00;;;;;;;-4.64;50.57;101553.00;5045680;27;97685;-77
2024/01/08 09:18:42;;;;;;;38.77;19.00;;;;;;;-4.45;50.48;101564.09;5014584;27;97979;-78
2024/01/08 09:21:09;;;;;;;41.50;19.37;;;;;;;-4.24;50.52;101582.19;5013782;27;96904;-79
2024/01/08 09:23:34;;;;;;;40.00;18.27;;;;;;;-4.40;50.47;101560.94;5013841;27;97420;-78
2024/01/08 09:26:00;;;;;;;39.47;17.93;;;;;;;-4.47;50.00;101550.34;5013639;27;101621;-78
2024/01/08 09:28:25;;;;;;;32.17;17.60;;;;;;;-4.74;50.76;101562.72;4996892;27;100865;-78
2024/01/08 09:30:52;;;;;;;38.93;17.77;;;;;;;-4.74;50.09;101555.94;5009271;28;97284;-78
2024/01/08 09:33:17;;;;;;;37.80;18.03;;;;;;;-4.53;50.36;101575.69;5019878;27;97072;-79
2024/01/08 09:35:43;;;;;;;38.37;19.17;;;;;;;-5.10;51.31;101553.34;5013055;27;97744;-79
2024/01/08 09:38:08;;;;;;;36.57;18.37;;;;;;;-4.92;51.26;101578.09;5012756;27;101128;-79
2024/01/08 09:40:34;;;;;;;40.33;17.90;;;;;;;-5.09;51.43;101557.69;5012226;27;97244;-79
2024/01/08 09:43:05;;;;;;;35.33;17.93;;;;;;;-4.88;50.90;101557.84;5048364;27;96790;-79
2024/01/08 09:45:30;;;;;;;42.13;19.83;;;;;;;-4.64;51.09;101577.75;5013221;27;101019;-79
2024/01/08 09:47:56;;;;;;;32.70;17.20;;;;;;;-4.66;51.14;101567.41;5032107;27;97998;-79
2024/01/08 09:50:22;;;;;;;38.70;18.77;;;;;;;-4.53;50.32;101596.22;5034179;27;97262;-79
2024/01/08 09:52:49;;;;;;;37.27;18.17;;;;;;;-4.49;50.20;101593.84;5014847;27;97444;-79
2024/01/08 09:55:15;;;;;;;38.10;18.33;;;;;;;-4.61;50.63;101595.84;5049906;27;97462;-78
2024/01/08 09:57:41;;;;;;;35.67;18.07;;;;;;;-4.33;50.01;101598.88;5015674;27;97498;-81
2024/01/08 10:00:07;;;;;;;36.33;17.43;;;;;;;-4.43;49.37;101606.06;5015124;27;97343;-78
2024/01/08 10:02:39;;;;;;;;;;;;;;;-4.27;48.96;101602.56;5013055;27;97350;-77
2024/01/08 10:05:06;;;;;;;43.97;18.97;;;;;;;-4.19;49.47;101598.63;5015985;27;97413;-78
2024/01/08 10:07:35;;;;;;;31.90;17.30;;;;;;;-4.02;49.60;101604.53;5008652;27;101089;-78
2024/01/08 10:10:01;;;;;;;36.13;17.60;;;;;;;-4.04;48.97;101593.31;4995930;27;96748;-78
2024/01/08 10:12:27;;;;;;;37.83;17.03;;;;;;;-3.78;48.29;101602.19;5002925;27;97625;-78
2024/01/08 10:14:54;;;;;;;39.27;17.97;;;;;;;-3.36;48.28;101600.63;5005674;27;100984;-78
2024/01/08 10:17:23;;;;;;;33.17;17.07;;;;;;;-3.43;47.68;101588.34;5013079;27;101454;-78
2024/01/08 10:19:49;;;;;;;34.90;16.93;;;;;;;-3.45;47.90;101605.38;5008571;27;96914;-78
2024/01/08 10:22:15;;;;;;;31.67;17.77;;;;;;;-3.49;47.64;101577.78;5012703;27;96798;-77
2024/01/08 10:24:44;;;;;;;36.97;18.53;;;;;;;-3.13;47.46;101581.06;5025476;27;98701;-77
2024/01/08 10:27:10;;;;;;;38.63;19.23;;;;;;;-2.95;47.44;101562.94;5016853;28;97971;-78
2024/01/08 10:29:37;;;;;;;35.90;17.30;;;;;;;-2.77;47.46;101597.09;5013716;28;97273;-77
2024/01/08 10:32:04;;;;;;;35.70;18.00;;;;;;;-3.43;47.25;101596.06;5016914;27;98158;-77
2024/01/08 10:34:30;;;;;;;32.73;16.13;;;;;;;-3.33;47.36;101579.34;4988396;27;101322;-78
2024/01/08 10:36:57;;;;;;;36.93;16.80;;;;;;;-3.11;46.95;101584.56;5002428;27;101217;-79
2024/01/08 10:39:22;;;;;;;34.40;17.23;;;;;;;-2.86;47.45;101595.84;5022431;27;97077;-78
2024/01/08 10:41:49;;;;;;;38.00;18.40;;;;;;;-2.80;46.59;101596.09;5014641;27;97995;-78
2024/01/08 10:44:14;;;;;;;41.27;20.33;;;;;;;-2.77;46.27;101591.94;5024841;27;97674;-77
2024/01/08 10:47:01;;;;;;;33.80;18.00;;;;;;;-3.08;47.05;101577.00;4992452;27;100791;-80
2024/01/08 10:49:36;;;;;;;37.20;17.67;;;;;;;-3.28;46.52;101599.28;5006351;27;97258;-77
2024/01/08 10:52:25;;;;;;;37.83;17.67;;;;;;;-3.36;47.36;101603.19;5014557;27;96901;-80
2024/01/08 10:54:58;;;;;;;35.43;17.50;;;;;;;-3.16;47.24;101614.31;5004398;27;101878;-81
2024/01/08 10:57:56;;;;;;;31.20;16.03;;;;;;;-2.69;46.64;101605.13;5012833;27;101387;-79
2024/01/08 11:00:22;;;;;;;39.63;17.93;;;;;;;-3.01;47.10;101593.53;5026319;27;96752;-82
2024/01/08 11:02:48;;;;;;;34.90;19.63;;;;;;;-3.02;46.50;101597.78;5015780;28;97248;-91